Time;durP1;ratioP1;P1;durP2;ratioP2;P2;SDS_P1;SDS_P2;PMS_P1;PMS_P2;Temp;Humidity;BMP_temperature;BMP_pressure;BME280_temperature;BME280_humidity;BME280_pressure;Samples;Min_cycle;Max_cycle;Signal;HPM_P1;HPM_P2
2021/05/04 00:00:22;;;;;;;9.85;2.03;;;;;;;11.79;59.85;100227.47;5181742;28;20018;-81
2021/05/04 00:02:52;;;;;;;9.00;1.88;;;;;;;11.66;62.73;100220.09;5184902;28;20033;-80
2021/05/04 00:05:23;;;;;;;5.68;1.70;;;;;;;11.46;72.98;100225.22;5185047;28;20022;-80
2021/05/04 00:07:53;;;;;;;9.80;2.80;;;;;;;10.97;100.00;100235.69;5181679;28;20430;-82
2021/05/04 00:10:24;;;;;;;9.27;2.70;;;;;;;10.47;100.00;100221.88;5172379;28;20025;-81
2021/05/04 00:12:54;;;;;;;10.15;2.35;;;;;;;10.15;100.00;100214.09;5181983;28;20021;-81
2021/05/04 00:15:25;;;;;;;8.25;2.55;;;;;;;9.92;100.00;100217.56;5178984;28;20041;-81
2021/05/04 00:17:55;;;;;;;7.18;2.75;;;;;;;9.74;100.00;100212.50;5177721;28;20034;-82
2021/05/04 00:20:26;;;;;;;5.40;2.28;;;;;;;9.65;100.00;100204.69;5170899;28;20118;-81
2021/05/04 00:22:56;;;;;;;6.68;2.30;;;;;;;9.59;100.00;100206.22;5180068;28;20034;-81
2021/05/04 00:25:27;;;;;;;9.02;3.03;;;;;;;9.43;100.00;100206.28;5180889;28;20022;-81
2021/05/04 00:27:58;;;;;;;5.78;2.65;;;;;;;9.35;100.00;100199.13;5173368;28;20050;-81
2021/05/04 00:30:28;;;;;;;11.50;2.75;;;;;;;9.30;100.00;100183.59;5183815;28;20018;-81
2021/05/04 00:32:59;;;;;;;4.82;2.65;;;;;;;9.19;100.00;100175.97;5170623;28;20030;-81
2021/05/04 00:35:30;;;;;;;5.35;2.88;;;;;;;9.05;100.00;100182.88;5181602;28;20034;-81
2021/05/04 00:38:00;;;;;;;6.88;2.80;;;;;;;9.04;100.00;100183.03;5188233;28;20083;-81
2021/05/04 00:40:31;;;;;;;5.10;3.05;;;;;;;8.91;100.00;100188.91;5172938;28;20019;-81
2021/05/04 00:43:01;;;;;;;8.98;3.00;;;;;;;8.83;100.00;100196.94;5167740;28;20034;-80
2021/05/04 00:45:32;;;;;;;6.43;3.30;;;;;;;8.81;100.00;100189.09;5172834;28;20022;-80
2021/05/04 00:48:03;;;;;;;8.32;3.10;;;;;;;8.73;100.00;100174.91;5171415;28;20030;-81
2021/05/04 00:50:34;;;;;;;7.35;2.97;;;;;;;8.70;100.00;100175.28;5178966;28;20105;-80
2021/05/04 00:53:04;;;;;;;8.32;3.42;;;;;;;8.65;100.00;100167.75;5166842;28;20121;-81
2021/05/04 00:55:35;;;;;;;6.50;2.78;;;;;;;8.60;100.00;100155.91;5166885;28;20523;-80
2021/05/04 00:58:08;;;;;;;6.50;3.50;;;;;;;8.56;100.00;100134.00;5172707;28;20491;-80
2021/05/04 01:00:39;;;;;;;10.60;3.78;;;;;;;8.48;100.00;100113.50;5167143;28;20479;-81
2021/05/04 01:03:11;;;;;;;6.00;3.47;;;;;;;8.37;100.00;100129.03;5166340;28;20034;-81
2021/05/04 01:05:41;;;;;;;5.32;3.35;;;;;;;8.37;100.00;100135.22;5170439;28;20037;-81
2021/05/04 01:08:12;;;;;;;11.15;4.40;;;;;;;8.30;100.00;100128.84;5186521;28;20033;-81
2021/05/04 01:10:43;;;;;;;9.10;3.83;;;;;;;8.16;100.00;100118.84;5185855;28;20101;-81
2021/05/04 01:13:13;;;;;;;11.10;3.50;;;;;;;8.23;100.00;100117.16;5173942;28;20033;-81
2021/05/04 01:15:44;;;;;;;9.77;4.10;;;;;;;8.22;100.00;100110.97;5167718;28;20054;-80
2021/05/04 01:18:15;;;;;;;12.05;3.83;;;;;;;8.19;100.00;100107.84;5182116;28;20034;-80
2021/05/04 01:20:50;;;;;;;10.82;4.22;;;;;;;8.23;100.00;100104.66;5169366;28;20035;-81
2021/05/04 01:23:20;;;;;;;8.20;4.03;;;;;;;8.19;100.00;100095.31;5169120;28;20029;-81
2021/05/04 01:25:51;;;;;;;10.45;3.55;;;;;;;8.10;100.00;100090.97;5177071;28;20384;-81
2021/05/04 01:28:22;;;;;;;7.28;4.10;;;;;;;8.10;100.00;100079.44;5168477;28;20022;-80
2021/05/04 01:30:52;;;;;;;7.07;3.63;;;;;;;8.18;100.00;100077.59;5176017;28;20046;-81
2021/05/04 01:33:23;;;;;;;7.55;4.35;;;;;;;8.12;100.00;100064.06;5177271;28;20022;-81
2021/05/04 01:35:53;;;;;;;8.25;3.95;;;;;;;8.11;100.00;100057.06;5174325;28;20030;-81
2021/05/04 01:38:24;;;;;;;7.43;3.67;;;;;;;8.03;100.00;100056.09;5169245;28;20030;-80
2021/05/04 01:40:55;;;;;;;9.45;4.43;;;;;;;8.01;100.00;100043.88;5168595;28;20081;-81
2021/05/04 01:43:29;;;;;;;7.93;4.05;;;;;;;7.98;100.00;100053.09;5176661;28;20080;-80
2021/05/04 01:46:09;;;;;;;8.73;3.78;;;;;;;8.00;100.00;100037.72;5164680;28;20093;-80
2021/05/04 01:48:48;;;;;;;10.18;3.42;;;;;;;7.98;100.00;100014.84;5177458;28;20545;-80
2021/05/04 01:51:18;;;;;;;9.48;4.05;;;;;;;7.96;100.00;100038.22;5185097;28;20030;-80
2021/05/04 01:53:49;;;;;;;8.65;3.58;;;;;;;8.00;100.00;100068.94;5175333;28;20037;-80
2021/05/04 01:56:21;;;;;;;7.82;3.28;;;;;;;8.01;100.00;100076.78;5184667;28;20155;-80
2021/05/04 01:59:03;;;;;;;9.43;3.80;;;;;;;7.95;100.00;100026.72;5180272;28;20033;-80
2021/05/04 02:01:40;;;;;;;8.68;3.08;;;;;;;7.89;100.00;100016.72;5173845;28;20484;-80
2021/05/04 02:04:11;;;;;;;5.28;3.38;;;;;;;7.98;100.00;100033.53;5172597;28;20035;-80
2021/05/04 02:06:42;;;;;;;11.10;4.53;;;;;;;8.04;100.00;100008.84;5177513;28;20030;-81
2021/05/04 02:09:16;;;;;;;6.18;3.08;;;;;;;8.00;100.00;100010.19;5169120;28;20068;-80
2021/05/04 02:11:47;;;;;;;11.10;3.60;;;;;;;8.05;100.00;99997.97;5172344;28;20570;-81
2021/05/04 02:14:18;;;;;;;8.10;3.05;;;;;;;8.12;100.00;99991.94;5170525;28;20484;-80
2021/05/04 02:16:49;;;;;;;5.05;2.90;;;;;;;8.19;100.00;99993.78;5170256;28;20081;-80
2021/05/04 02:19:19;;;;;;;4.25;2.58;;;;;;;8.29;100.00;99967.69;5171904;28;20037;-79
2021/05/04 02:21:50;;;;;;;11.07;2.90;;;;;;;8.30;100.00;99964.00;5175497;28;20027;-81
2021/05/04 02:24:20;;;;;;;8.52;2.33;;;;;;;8.29;100.00;99958.84;5167145;28;20496;-80
2021/05/04 02:26:51;;;;;;;6.47;2.72;;;;;;;8.40;100.00;99958.47;5172848;28;20022;-80
2021/05/04 02:29:21;;;;;;;4.70;2.47;;;;;;;8.45;100.00;99955.28;5167347;28;20435;-80
2021/05/04 02:31:52;;;;;;;3.63;2.60;;;;;;;8.51;100.00;99949.25;5173304;28;20026;-80
2021/05/04 02:34:22;;;;;;;4.60;2.25;;;;;;;8.55;100.00;99929.16;5167793;28;20101;-80
2021/05/04 02:36:53;;;;;;;6.60;2.28;;;;;;;8.56;100.00;99944.19;5194934;28;20026;-81
2021/05/04 02:39:23;;;;;;;6.10;2.30;;;;;;;8.60;100.00;99931.31;5173038;28;20499;-80
2021/05/04 02:41:54;;;;;;;5.80;2.17;;;;;;;8.58;100.00;99912.75;5175577;28;20030;-80
2021/05/04 02:44:24;;;;;;;3.08;2.00;;;;;;;8.59;100.00;99908.28;5180129;28;20018;-79
2021/05/04 02:46:55;;;;;;;10.35;2.22;;;;;;;8.64;100.00;99924.63;5175777;28;20022;-81
2021/05/04 02:49:25;;;;;;;13.00;2.63;;;;;;;8.66;100.00;99910.06;5178400;28;20026;-81
2021/05/04 02:51:56;;;;;;;4.00;2.17;;;;;;;8.67;100.00;99919.72;5182244;28;20030;-80
2021/05/04 02:54:26;;;;;;;5.32;1.85;;;;;;;8.71;100.00;99920.22;5178292;28;20037;-80
2021/05/04 02:56:56;;;;;;;5.95;2.00;;;;;;;8.65;100.00;99894.19;5185417;28;20030;-80
2021/05/04 02:59:27;;;;;;;4.68;2.20;;;;;;;8.69;100.00;99898.19;5173204;28;20030;-80
2021/05/04 03:01:59;;;;;;;4.55;1.92;;;;;;;8.70;100.00;99873.09;5186247;28;20033;-80
2021/05/04 03:04:30;;;;;;;8.13;2.13;;;;;;;8.68;100.00;99885.81;5169689;28;20308;-80
2021/05/04 03:07:00;;;;;;;5.13;2.25;;;;;;;8.66;100.00;99886.00;5189860;28;20029;-80
2021/05/04 03:09:31;;;;;;;5.13;2.13;;;;;;;8.71;100.00;99874.75;5181590;28;20110;-80
2021/05/04 03:12:02;;;;;;;2.42;1.75;;;;;;;8.70;100.00;99859.75;5175180;28;20034;-80
2021/05/04 03:14:32;;;;;;;5.72;1.90;;;;;;;8.70;100.00;99851.72;5183939;28;20478;-80
2021/05/04 03:17:03;;;;;;;9.35;3.60;;;;;;;8.75;100.00;99850.16;5174920;28;20026;-80
2021/05/04 03:19:33;;;;;;;4.93;1.88;;;;;;;8.82;100.00;99836.91;5177284;28;20109;-81
2021/05/04 03:22:03;;;;;;;4.05;2.13;;;;;;;8.85;100.00;99851.78;5169695;28;20037;-81
2021/05/04 03:24:34;;;;;;;7.18;2.75;;;;;;;8.86;100.00;99850.75;5185165;28;20022;-80
2021/05/04 03:27:05;;;;;;;2.08;1.70;;;;;;;8.87;100.00;99837.19;5187797;28;20032;-81
2021/05/04 03:29:35;;;;;;;3.97;2.03;;;;;;;8.86;100.00;99832.84;5177895;28;20046;-80
2021/05/04 03:32:06;;;;;;;5.90;2.08;;;;;;;8.84;100.00;99836.75;5173314;28;20041;-80
2021/05/04 03:34:36;;;;;;;5.65;2.35;;;;;;;8.82;100.00;99818.19;5168880;28;20077;-80
2021/05/04 03:37:07;;;;;;;2.58;1.77;;;;;;;8.84;100.00;99826.88;5169492;28;20424;-80
2021/05/04 03:39:37;;;;;;;3.95;1.50;;;;;;;8.94;100.00;99814.09;5179935;28;20048;-80
2021/05/04 03:42:08;;;;;;;10.93;1.95;;;;;;;8.99;100.00;99830.41;5187771;28;20080;-80
2021/05/04 03:44:39;;;;;;;4.43;1.75;;;;;;;9.01;100.00;99833.72;5182418;28;20502;-81
2021/05/04 03:47:09;;;;;;;3.33;1.75;;;;;;;9.05;100.00;99818.16;5168114;28;20025;-79
2021/05/04 03:49:39;;;;;;;10.98;1.73;;;;;;;9.07;100.00;99834.84;5168915;28;20041;-80
2021/05/04 03:52:10;;;;;;;18.83;2.85;;;;;;;9.11;100.00;99824.63;5186046;28;20037;-80
2021/05/04 03:54:40;;;;;;;9.63;2.75;;;;;;;9.14;100.00;99814.41;5187932;28;20026;-80
2021/05/04 03:57:11;;;;;;;5.65;1.60;;;;;;;9.21;100.00;99819.84;5188450;28;20034;-80
2021/05/04 03:59:42;;;;;;;6.00;1.50;;;;;;;9.21;100.00;99828.69;5168873;28;20037;-80
2021/05/04 04:02:12;;;;;;;1.55;1.33;;;;;;;9.25;100.00;99821.16;5169120;28;20484;-80
2021/05/04 04:04:43;;;;;;;6.57;1.80;;;;;;;9.31;100.00;99802.50;5169283;28;20022;-80
2021/05/04 04:07:14;;;;;;;7.30;1.67;;;;;;;9.30;100.00;99808.88;5153109;28;20105;-80
2021/05/04 04:09:44;;;;;;;6.53;1.65;;;;;;;9.30;100.00;99808.88;5168071;28;20098;-80
2021/05/04 04:12:15;;;;;;;4.55;1.10;;;;;;;9.34;100.00;99812.03;5182087;28;20033;-80
2021/05/04 04:14:45;;;;;;;10.15;1.90;;;;;;;9.29;100.00;99803.72;5168765;28;20407;-80
2021/05/04 04:17:16;;;;;;;6.95;1.10;;;;;;;9.32;100.00;99800.66;5180907;28;20112;-80
2021/05/04 04:19:46;;;;;;;3.05;1.25;;;;;;;9.29;100.00;99798.38;5168142;28;20484;-80
2021/05/04 04:22:16;;;;;;;3.42;1.65;;;;;;;9.30;100.00;99784.78;5174998;28;20395;-80
2021/05/04 04:24:47;;;;;;;4.53;1.40;;;;;;;9.31;100.00;99790.97;5166193;28;20030;-80
2021/05/04 04:27:17;;;;;;;6.05;1.67;;;;;;;9.30;100.00;99790.13;5167293;28;20034;-80
2021/05/04 04:29:48;;;;;;;3.13;1.48;;;;;;;9.32;100.00;99785.41;5163206;28;20419;-80
2021/05/04 04:32:19;;;;;;;3.47;1.40;;;;;;;9.34;100.00;99786.09;5168025;28;20026;-79
2021/05/04 04:34:51;;;;;;;2.05;1.20;;;;;;;9.33;100.00;99773.69;5167481;28;20026;-80
2021/05/04 04:37:21;;;;;;;5.47;1.02;;;;;;;9.33;100.00;99772.88;5168316;28;20031;-80
2021/05/04 04:39:52;;;;;;;8.60;1.52;;;;;;;9.40;100.00;99772.97;5181883;28;20018;-80
2021/05/04 04:42:22;;;;;;;3.60;1.20;;;;;;;9.41;100.00;99753.22;5186378;28;20052;-80
2021/05/04 04:44:53;;;;;;;7.20;1.55;;;;;;;9.48;100.00;99763.00;5181462;28;20030;-80
2021/05/04 04:47:23;;;;;;;4.63;1.48;;;;;;;9.43;100.00;99754.69;5175536;28;20030;-80
2021/05/04 04:49:54;;;;;;;3.72;1.52;;;;;;;9.52;100.00;99755.44;5162475;28;20368;-80
2021/05/04 04:52:24;;;;;;;5.30;1.33;;;;;;;9.57;100.00;99753.84;5185434;28;20118;-79
2021/05/04 04:54:55;;;;;;;6.13;1.30;;;;;;;9.70;100.00;99779.16;5185272;28;20026;-80
2021/05/04 04:57:25;;;;;;;4.00;1.50;;;;;;;9.73;100.00;99784.13;5174415;28;20040;-80
2021/05/04 04:59:56;;;;;;;5.93;1.17;;;;;;;9.73;100.00;99786.78;5179136;28;20053;-80
2021/05/04 05:02:27;;;;;;;4.80;1.35;;;;;;;9.58;100.00;99782.28;5173404;28;20033;-80
2021/05/04 05:04:57;;;;;;;7.43;1.40;;;;;;;9.52;100.00;99761.59;5176965;28;20022;-80
2021/05/04 05:07:27;;;;;;;5.32;2.15;;;;;;;9.56;100.00;99752.19;5179404;28;20022;-80
2021/05/04 05:09:58;;;;;;;5.00;1.27;;;;;;;9.62;100.00;99744.44;5179042;28;20062;-80
2021/05/04 05:12:28;;;;;;;3.00;1.67;;;;;;;9.70;100.00;99765.75;5189128;28;20032;-80
2021/05/04 05:15:01;;;;;;;3.33;1.80;;;;;;;9.67;100.00;99766.94;5189969;28;20033;-80
2021/05/04 05:17:32;;;;;;;10.65;1.77;;;;;;;9.80;100.00;99767.13;5190885;28;20025;-80
2021/05/04 05:20:03;;;;;;;12.10;1.50;;;;;;;9.82;100.00;99770.44;5172037;28;20014;-80
2021/05/04 05:22:33;;;;;;;7.50;2.00;;;;;;;9.88;100.00;99765.34;5175310;28;20119;-80
2021/05/04 05:25:04;;;;;;;8.48;1.73;;;;;;;9.88;100.00;99773.38;5177780;28;20024;-79
2021/05/04 05:27:35;;;;;;;8.48;1.70;;;;;;;9.87;100.00;99775.22;5160109;28;20054;-80
2021/05/04 05:30:07;;;;;;;9.80;2.08;;;;;;;9.90;100.00;99782.06;5195832;28;20046;-80
2021/05/04 05:32:38;;;;;;;10.88;2.03;;;;;;;9.91;100.00;99762.31;5187635;28;20033;-80
2021/05/04 05:35:09;;;;;;;7.90;1.35;;;;;;;9.89;100.00;99777.72;5185021;28;20401;-80
2021/05/04 05:37:39;;;;;;;11.63;2.15;;;;;;;9.80;100.00;99766.28;5180612;28;20491;-80
2021/05/04 05:40:10;;;;;;;3.90;1.25;;;;;;;9.82;100.00;99761.56;5179526;28;20543;-80
2021/05/04 05:42:40;;;;;;;4.40;1.40;;;;;;;10.01;100.00;99773.53;5194066;28;20034;-80
2021/05/04 05:45:11;;;;;;;5.35;1.65;;;;;;;10.39;100.00;99774.19;5176676;28;20037;-80
2021/05/04 05:47:42;;;;;;;7.38;1.95;;;;;;;10.59;100.00;99758.28;5190166;28;20030;-79
2021/05/04 05:50:12;;;;;;;2.35;1.02;;;;;;;10.47;100.00;99744.56;5163266;28;20015;-80
2021/05/04 05:52:43;;;;;;;4.82;1.38;;;;;;;10.30;100.00;99761.94;5179623;28;20045;-80
2021/05/04 05:55:13;;;;;;;4.53;1.13;;;;;;;10.20;100.00;99764.06;5190579;28;20022;-80
2021/05/04 05:57:43;;;;;;;8.85;1.90;;;;;;;10.03;100.00;99760.78;5171541;28;20089;-79
2021/05/04 06:00:17;;;;;;;8.73;1.88;;;;;;;10.03;100.00;99739.34;5191192;28;20068;-80
2021/05/04 06:02:47;;;;;;;7.32;1.80;;;;;;;10.15;100.00;99755.78;5185033;28;20027;-80
2021/05/04 06:05:18;;;;;;;11.00;1.80;;;;;;;10.06;100.00;99736.28;5177697;28;20026;-79
2021/05/04 06:07:48;;;;;;;7.25;2.08;;;;;;;10.00;100.00;99750.47;5194920;28;20113;-82
2021/05/04 06:10:19;;;;;;;7.70;1.63;;;;;;;9.98;100.00;99739.09;5172640;28;20119;-79
2021/05/04 06:13:00;;;;;;;20.52;3.35;;;;;;;10.06;100.00;99738.97;5178241;28;20033;-78
2021/05/04 06:15:31;;;;;;;11.13;1.85;;;;;;;10.04;100.00;99743.69;5166804;28;20033;-78
2021/05/04 06:18:03;;;;;;;10.30;2.05;;;;;;;10.03;100.00;99740.16;5172455;28;20054;-80
2021/05/04 06:20:34;;;;;;;10.18;2.22;;;;;;;10.04;100.00;99736.50;5169810;28;20389;-80
2021/05/04 06:23:06;;;;;;;13.73;1.80;;;;;;;10.09;100.00;99738.56;5174847;28;20119;-79
2021/05/04 06:25:36;;;;;;;11.57;1.98;;;;;;;10.04;100.00;99728.47;5175833;28;20030;-79
2021/05/04 06:28:09;;;;;;;10.00;2.05;;;;;;;9.98;100.00;99745.25;5172693;28;20034;-79
2021/05/04 06:30:40;;;;;;;6.80;2.22;;;;;;;10.00;100.00;99743.25;5183333;28;20022;-79
2021/05/04 06:33:13;;;;;;;11.27;1.90;;;;;;;9.97;100.00;99740.09;5200433;28;20104;-79
2021/05/04 06:35:48;;;;;;;12.25;2.20;;;;;;;9.91;100.00;99759.63;5166453;28;20033;-79
2021/05/04 06:38:18;;;;;;;12.20;2.38;;;;;;;9.85;100.00;99750.50;5173656;28;20022;-79
2021/05/04 06:40:50;;;;;;;14.65;2.70;;;;;;;9.80;100.00;99758.25;5188032;28;20112;-80
2021/05/04 06:43:22;;;;;;;10.98;1.90;;;;;;;9.71;100.00;99751.34;5184620;28;20030;-79
2021/05/04 06:45:53;;;;;;;17.60;2.30;;;;;;;9.61;100.00;99759.66;5166073;28;20026;-80
2021/05/04 06:48:24;;;;;;;8.50;1.90;;;;;;;9.60;100.00;99750.81;5173835;28;20087;-79
2021/05/04 06:50:56;;;;;;;12.05;2.13;;;;;;;9.53;100.00;99741.84;5182649;28;20028;-78
2021/05/04 06:53:26;;;;;;;16.95;2.42;;;;;;;9.53;100.00;99739.16;5163664;28;20038;-79
2021/05/04 06:55:57;;;;;;;13.82;2.15;;;;;;;9.58;100.00;99741.28;5163576;28;20091;-80
2021/05/04 06:58:27;;;;;;;18.08;2.97;;;;;;;9.52;100.00;99742.03;5177136;28;20029;-81
2021/05/04 07:00:58;;;;;;;15.52;2.80;;;;;;;9.46;100.00;99748.97;5169638;28;20030;-81
2021/05/04 07:03:28;;;;;;;12.32;3.10;;;;;;;9.45;100.00;99741.97;5170333;28;20511;-81
2021/05/04 07:05:58;;;;;;;21.90;3.13;;;;;;;9.35;100.00;99765.50;5175100;28;20500;-79
2021/05/04 07:08:29;;;;;;;14.70;2.38;;;;;;;9.17;100.00;99755.16;5173351;28;20026;-80
2021/05/04 07:10:59;;;;;;;17.33;3.78;;;;;;;9.12;100.00;99754.03;5193540;28;20430;-81
2021/05/04 07:13:30;;;;;;;16.83;2.97;;;;;;;8.97;100.00;99752.16;5190311;28;20033;-81
2021/05/04 07:16:01;;;;;;;17.52;2.58;;;;;;;8.91;100.00;99760.09;5172488;28;20045;-81
2021/05/04 07:18:32;;;;;;;17.88;3.28;;;;;;;8.82;100.00;99762.00;5188419;28;20049;-83
2021/05/04 07:21:07;;;;;;;17.65;3.20;;;;;;;8.84;100.00;99754.66;5171252;28;20018;-80
2021/05/04 07:23:38;;;;;;;;;;;;;;;8.93;100.00;99758.06;5186107;28;20469;-81
2021/05/04 07:26:10;;;;;;;21.98;3.40;;;;;;;9.18;100.00;99735.38;5171248;28;19910;-82
2021/05/04 07:28:41;;;;;;;16.60;3.17;;;;;;;9.47;100.00;99729.22;5185779;28;20120;-83
2021/05/04 07:31:12;;;;;;;16.80;3.20;;;;;;;9.66;100.00;99733.16;5162560;28;20484;-82
2021/05/04 07:33:42;;;;;;;18.90;2.97;;;;;;;9.96;100.00;99731.25;5170936;28;20511;-82
2021/05/04 07:36:13;;;;;;;15.45;2.88;;;;;;;10.29;100.00;99726.28;5182715;28;20026;-82
2021/05/04 07:38:44;;;;;;;21.67;3.35;;;;;;;10.57;100.00;99733.50;5171434;28;20539;-82
2021/05/04 07:41:14;;;;;;;17.08;4.03;;;;;;;11.02;100.00;99732.22;5183845;28;20030;-82
2021/05/04 07:43:45;;;;;;;14.90;3.13;;;;;;;11.14;100.00;99721.75;5171366;28;20090;-83
2021/05/04 07:46:15;;;;;;;16.55;2.75;;;;;;;11.41;100.00;99720.06;5172047;28;20044;-82
2021/05/04 07:48:46;;;;;;;13.70;2.70;;;;;;;11.44;100.00;99714.28;5178150;28;20423;-83
2021/05/04 07:51:17;;;;;;;8.18;2.55;;;;;;;11.60;100.00;99724.69;5188391;28;20030;-80
2021/05/04 07:53:48;;;;;;;9.82;2.75;;;;;;;11.51;100.00;99717.84;5186325;28;20041;-81
2021/05/04 07:56:19;;;;;;;13.68;2.53;;;;;;;11.25;100.00;99709.66;5181363;28;20018;-80
2021/05/04 07:58:50;;;;;;;16.38;2.83;;;;;;;11.10;100.00;99724.03;5179586;28;20076;-81
2021/05/04 08:01:20;;;;;;;17.00;2.50;;;;;;;10.93;100.00;99717.28;5175001;28;20388;-81
2021/05/04 08:03:51;;;;;;;14.88;2.97;;;;;;;10.80;100.00;99722.56;5172040;28;20030;-82
2021/05/04 08:06:21;;;;;;;17.20;2.55;;;;;;;10.78;100.00;99727.28;5167611;28;20079;-81
2021/05/04 08:08:52;;;;;;;25.08;4.90;;;;;;;10.66;100.00;99721.63;5195124;28;20117;-81
2021/05/04 08:11:23;;;;;;;13.40;2.70;;;;;;;10.62;100.00;99715.00;5175418;28;20503;-79
2021/05/04 08:13:53;;;;;;;19.63;3.40;;;;;;;10.49;100.00;99725.59;5191282;28;20025;-80
2021/05/04 08:16:24;;;;;;;15.13;3.30;;;;;;;10.24;100.00;99723.34;5187667;28;20037;-80
2021/05/04 08:18:54;;;;;;;16.38;3.40;;;;;;;10.17;100.00;99735.78;5170395;28;20029;-81
2021/05/04 08:21:31;;;;;;;14.95;3.42;;;;;;;10.09;100.00;99730.53;5171154;28;20045;-81
2021/05/04 08:24:03;;;;;;;10.30;2.75;;;;;;;10.00;100.00;99743.25;5194316;28;20064;-82
2021/05/04 08:26:34;;;;;;;20.38;3.25;;;;;;;9.90;100.00;99753.44;5186385;28;20049;-81
2021/05/04 08:29:04;;;;;;;19.70;2.92;;;;;;;9.83;100.00;99749.84;5178136;28;20522;-80
2021/05/04 08:31:35;;;;;;;25.27;3.58;;;;;;;9.68;100.00;99741.81;5176926;28;20034;-82
2021/05/04 08:34:05;;;;;;;18.08;2.95;;;;;;;9.55;100.00;99744.34;5190103;28;20026;-81
2021/05/04 08:36:36;;;;;;;14.00;2.88;;;;;;;9.59;100.00;99751.81;5172049;28;20053;-80
2021/05/04 08:39:07;;;;;;;20.52;3.00;;;;;;;9.68;100.00;99752.53;5147329;28;20033;-80
2021/05/04 08:41:37;;;;;;;13.75;2.42;;;;;;;9.88;100.00;99746.59;5166414;28;20331;-79
2021/05/04 08:44:15;;;;;;;20.63;2.83;;;;;;;9.92;100.00;99754.06;5176605;28;20480;-80
2021/05/04 08:46:48;;;;;;;14.40;2.95;;;;;;;9.92;100.00;99756.75;5166945;28;20030;-81
2021/05/04 08:49:19;;;;;;;18.60;2.80;;;;;;;9.86;100.00;99765.53;5168959;28;20036;-79
2021/05/04 08:51:50;;;;;;;16.67;3.03;;;;;;;9.94;100.00;99773.47;5176071;28;20030;-80
2021/05/04 08:54:21;;;;;;;20.75;3.53;;;;;;;10.15;100.00;99778.03;5170169;28;20024;-82
2021/05/04 08:56:51;;;;;;;22.00;4.05;;;;;;;10.54;100.00;99760.72;5178527;28;20022;-81
2021/05/04 08:59:21;;;;;;;23.85;4.75;;;;;;;10.87;100.00;99761.81;5168816;28;20026;-81
2021/05/04 09:01:52;;;;;;;28.42;3.97;;;;;;;10.99;100.00;99767.47;5173986;28;20073;-80
2021/05/04 09:04:28;;;;;;;19.90;4.63;;;;;;;11.19;100.00;99791.78;5165863;28;20052;-81
2021/05/04 09:07:14;;;;;;;15.50;2.78;;;;;;;11.00;100.00;99773.69;5168507;28;20121;-81
2021/05/04 09:10:09;;;;;;;16.67;3.00;;;;;;;10.87;100.00;99780.59;5167170;28;20471;-81
2021/05/04 09:12:48;;;;;;;13.60;1.75;;;;;;;10.80;100.00;99789.66;5166244;28;20528;-78
2021/05/04 09:15:50;;;;;;;16.42;2.17;;;;;;;10.61;100.00;99810.72;5182640;28;20036;-81
2021/05/04 09:18:39;;;;;;;14.68;3.60;;;;;;;10.48;100.00;99821.31;5185964;28;20029;-80
2021/05/04 09:21:11;;;;;;;16.48;5.53;;;;;;;10.46;100.00;99809.94;5168407;28;20076;-79
2021/05/04 09:23:43;;;;;;;17.20;2.50;;;;;;;10.60;100.00;99827.84;5180000;28;20327;-81
2021/05/04 09:26:29;;;;;;;12.75;3.28;;;;;;;10.58;100.00;99829.88;5175967;28;20079;-82
2021/05/04 09:29:09;;;;;;;12.32;1.50;;;;;;;10.69;100.00;99831.19;5163764;28;20402;-82
2021/05/04 09:31:40;;;;;;;15.55;3.75;;;;;;;10.66;100.00;99839.66;5172737;28;20030;-83
2021/05/04 09:34:13;;;;;;;10.60;2.03;;;;;;;10.83;100.00;99834.84;5173328;28;20034;-83
2021/05/04 09:36:46;;;;;;;15.38;2.17;;;;;;;11.00;100.00;99822.00;5165392;28;20032;-81
2021/05/04 09:39:27;;;;;;;11.07;1.58;;;;;;;11.08;100.00;99830.72;5178997;28;20021;-80
2021/05/04 09:42:00;;;;;;;18.42;2.15;;;;;;;11.13;100.00;99841.72;5183521;28;20026;-81
2021/05/04 09:44:39;;;;;;;19.95;2.10;;;;;;;11.13;100.00;99860.50;5171674;28;20510;-80
2021/05/04 09:47:11;;;;;;;14.18;2.33;;;;;;;11.30;100.00;99854.88;5165852;28;20030;-81
2021/05/04 09:49:42;;;;;;;20.27;2.58;;;;;;;11.24;100.00;99869.06;5167544;28;20380;-82
2021/05/04 09:52:19;;;;;;;23.92;7.57;;;;;;;11.22;100.00;99845.09;5178084;28;20025;-81
2021/05/04 09:54:50;;;;;;;12.50;2.72;;;;;;;11.17;100.00;99863.63;5177142;28;20122;-80
2021/05/04 09:57:38;;;;;;;9.00;1.75;;;;;;;11.14;100.00;99877.44;5181265;28;20014;-80
2021/05/04 10:00:10;;;;;;;10.73;1.80;;;;;;;11.09;100.00;99899.53;5186376;28;20108;-79
2021/05/04 10:02:42;;;;;;;10.75;2.30;;;;;;;11.24;100.00;99896.72;5166749;28;20396;-83
2021/05/04 10:05:14;;;;;;;11.75;1.90;;;;;;;11.47;100.00;99907.25;5178361;28;20018;-77
2021/05/04 10:07:46;;;;;;;12.40;1.85;;;;;;;11.61;100.00;99898.28;5175337;28;20110;-78
2021/05/04 10:10:17;;;;;;;10.80;2.20;;;;;;;11.64;100.00;99894.34;5183995;28;20483;-81
2021/05/04 10:12:48;;;;;;;6.22;1.45;;;;;;;11.77;100.00;99899.00;5173924;28;20065;-79
2021/05/04 10:15:18;;;;;;;9.88;1.73;;;;;;;11.67;100.00;99910.91;5167229;28;20411;-79
2021/05/04 10:17:49;;;;;;;11.43;1.58;;;;;;;11.40;100.00;99914.44;5163725;28;20034;-79
2021/05/04 10:20:20;;;;;;;9.45;1.58;;;;;;;11.32;100.00;99922.63;5166487;28;20038;-79
2021/05/04 10:22:51;;;;;;;8.70;1.73;;;;;;;11.63;100.00;99922.25;5175824;28;20511;-81
2021/05/04 10:25:24;;;;;;;9.32;1.95;;;;;;;11.67;100.00;99923.53;5185662;28;20538;-81
2021/05/04 10:27:56;;;;;;;14.15;2.40;;;;;;;11.53;100.00;99922.59;5173877;28;20525;-81
2021/05/04 10:30:26;;;;;;;9.18;2.05;;;;;;;11.47;100.00;99919.84;5187312;28;20030;-81
2021/05/04 10:33:01;;;;;;;12.93;2.08;;;;;;;11.61;100.00;99919.75;5188270;28;20448;-80
2021/05/04 10:35:34;;;;;;;5.57;1.60;;;;;;;11.61;100.00;99919.75;5177352;28;20527;-80
2021/05/04 10:38:06;;;;;;;10.75;1.95;;;;;;;11.45;100.00;99916.56;5179606;28;20034;-81
2021/05/04 10:40:41;;;;;;;11.85;2.83;;;;;;;11.32;100.00;99922.63;5177999;28;20455;-80
2021/05/04 10:43:21;;;;;;;8.90;1.77;;;;;;;11.29;100.00;99939.09;5166193;28;20034;-79
2021/05/04 10:45:54;;;;;;;9.02;1.83;;;;;;;11.19;100.00;99926.00;5170589;28;20117;-80
2021/05/04 10:48:36;;;;;;;9.93;1.58;;;;;;;11.18;99.02;99935.09;5165417;28;20014;-80
2021/05/04 10:51:13;;;;;;;5.93;1.30;;;;;;;11.34;99.36;99945.56;5171845;28;20036;-81
2021/05/04 10:53:49;;;;;;;17.27;3.30;;;;;;;11.34;95.11;99944.72;5172822;28;20026;-82
2021/05/04 10:56:35;;;;;;;9.93;1.80;;;;;;;11.37;100.00;99955.94;5165698;28;20504;-79
2021/05/04 10:59:07;;;;;;;5.20;1.45;;;;;;;11.43;89.65;99965.06;5178930;28;20268;-81
2021/05/04 11:01:38;;;;;;;9.13;1.48;;;;;;;11.51;94.06;99972.16;5166210;28;20026;-82
2021/05/04 11:04:08;;;;;;;10.32;1.50;;;;;;;11.23;89.74;99983.66;5182470;28;20041;-78
2021/05/04 11:06:41;;;;;;;15.07;5.25;;;;;;;11.25;85.79;99976.28;5183726;28;20058;-78
2021/05/04 11:09:13;;;;;;;7.32;1.60;;;;;;;11.33;87.31;99980.66;5164187;28;20030;-80
2021/05/04 11:11:46;;;;;;;8.20;3.25;;;;;;;11.67;82.48;99969.19;5176790;28;20434;-79
2021/05/04 11:14:19;;;;;;;6.65;1.70;;;;;;;11.74;79.77;99978.13;5165744;28;20105;-81
2021/05/04 11:16:56;;;;;;;7.43;1.70;;;;;;;11.67;91.28;99983.47;5163738;28;20500;-82
2021/05/04 11:19:32;;;;;;;7.68;2.25;;;;;;;11.81;83.92;99994.31;5165397;28;20045;-82
2021/05/04 11:22:07;;;;;;;9.98;2.63;;;;;;;11.84;85.03;100002.84;5179811;28;20041;-80
2021/05/04 11:24:40;;;;;;;9.43;1.75;;;;;;;11.66;84.19;99995.25;5170767;28;20396;-79
2021/05/04 11:27:12;;;;;;;8.73;1.77;;;;;;;11.75;84.31;99987.88;5175601;28;20014;-80
2021/05/04 11:29:45;;;;;;;10.27;1.50;;;;;;;11.66;86.80;99995.25;5179085;28;20069;-80
2021/05/04 11:32:43;;;;;;;8.90;1.85;;;;;;;11.42;92.68;99995.63;5184567;28;20034;-80
2021/05/04 11:35:14;;;;;;;13.15;1.60;;;;;;;11.77;97.41;99995.72;5177656;28;20572;-80
2021/05/04 11:37:49;;;;;;;6.80;1.23;;;;;;;12.04;84.29;100005.66;5165498;28;20507;-81
2021/05/04 11:40:24;;;;;;;8.00;1.30;;;;;;;12.36;95.65;99985.41;5176691;28;20034;-79
2021/05/04 11:42:57;;;;;;;7.13;1.70;;;;;;;12.59;90.57;99993.16;5184748;28;20529;-80
2021/05/04 11:45:30;;;;;;;6.90;1.48;;;;;;;12.88;91.98;99994.75;5180957;28;20038;-80
2021/05/04 11:48:04;;;;;;;11.30;2.70;;;;;;;13.05;76.59;99986.28;5170059;28;20023;-80